sensor_id;sensor_type;location;lat;lon;timestamp;temperature;humidity
9125;DHT22;4597;48.730;9.114;2023-04-16T00:01:36;8.20;99.90
9125;DHT22;4597;48.730;9.114;2023-04-16T00:04:01;8.10;99.90
9125;DHT22;4597;48.730;9.114;2023-04-16T00:06:27;8.10;99.90
9125;DHT22;4597;48.730;9.114;2023-04-16T00:08:53;8.10;99.90
9125;DHT22;4597;48.730;9.114;2023-04-16T00:11:18;8.10;99.90
9125;DHT22;4597;48.730;9.114;2023-04-16T00:13:44;8.10;99.90
9125;DHT22;4597;48.730;9.114;2023-04-16T00:16:09;8.20;99.90
9125;DHT22;4597;48.730;9.114;2023-04-16T00:18:35;8.10;99.90
9125;DHT22;4597;48.730;9.114;2023-04-16T00:21:00;8.10;99.90
9125;DHT22;4597;48.730;9.114;2023-04-16T00:23:26;8.10;99.90
9125;DHT22;4597;48.730;9.114;2023-04-16T00:25:52;8.20;99.90
9125;DHT22;4597;48.730;9.114;2023-04-16T00:28:18;8.20;99.90
9125;DHT22;4597;48.730;9.114;2023-04-16T00:30:43;8.20;99.90
9125;DHT22;4597;48.730;9.114;2023-04-16T00:33:09;8.30;99.90
9125;DHT22;4597;48.730;9.114;2023-04-16T00:35:35;8.20;99.90
9125;DHT22;4597;48.730;9.114;2023-04-16T00:38:00;8.20;99.90
9125;DHT22;4597;48.730;9.114;2023-04-16T00:40:26;8.30;99.90
9125;DHT22;4597;48.730;9.114;2023-04-16T00:42:53;8.30;99.90
9125;DHT22;4597;48.730;9.114;2023-04-16T00:45:18;8.20;99.90
9125;DHT22;4597;48.730;9.114;2023-04-16T00:47:44;8.20;99.90
9125;DHT22;4597;48.730;9.114;2023-04-16T00:50:10;8.20;99.90
9125;DHT22;4597;48.730;9.114;2023-04-16T00:52:36;8.10;99.90
9125;DHT22;4597;48.730;9.114;2023-04-16T00:55:02;8.20;99.90
9125;DHT22;4597;48.730;9.114;2023-04-16T00:57:29;8.20;99.90
9125;DHT22;4597;48.730;9.114;2023-04-16T00:59:55;8.20;99.90
9125;DHT22;4597;48.730;9.114;2023-04-16T01:02:21;8.20;99.90
9125;DHT22;4597;48.730;9.114;2023-04-16T01:04:47;8.20;99.90
9125;DHT22;4597;48.730;9.114;2023-04-16T01:07:12;8.20;99.90
9125;DHT22;4597;48.730;9.114;2023-04-16T01:09:38;8.20;99.90
9125;DHT22;4597;48.730;9.114;2023-04-16T01:12:03;8.20;99.90
9125;DHT22;4597;48.730;9.114;2023-04-16T01:14:29;8.20;99.90
9125;DHT22;4597;48.730;9.114;2023-04-16T01:16:56;8.20;99.90
9125;DHT22;4597;48.730;9.114;2023-04-16T01:19:21;8.10;99.90
9125;DHT22;4597;48.730;9.114;2023-04-16T01:21:46;8.20;99.90
9125;DHT22;4597;48.730;9.114;2023-04-16T01:24:12;8.10;99.90
9125;DHT22;4597;48.730;9.114;2023-04-16T01:26:37;8.10;99.90
9125;DHT22;4597;48.730;9.114;2023-04-16T01:29:03;8.10;99.90
9125;DHT22;4597;48.730;9.114;2023-04-16T01:31:28;8.20;99.90
9125;DHT22;4597;48.730;9.114;2023-04-16T01:33:54;8.10;99.90
9125;DHT22;4597;48.730;9.114;2023-04-16T01:36:19;8.20;99.90
9125;DHT22;4597;48.730;9.114;2023-04-16T01:38:45;8.10;99.90
9125;DHT22;4597;48.730;9.114;2023-04-16T01:41:10;8.20;99.90
9125;DHT22;4597;48.730;9.114;2023-04-16T01:43:36;8.10;99.90
9125;DHT22;4597;48.730;9.114;2023-04-16T01:46:17;8.20;99.90
9125;DHT22;4597;48.730;9.114;2023-04-16T01:48:42;8.20;99.90
9125;DHT22;4597;48.730;9.114;2023-04-16T01:51:08;8.10;99.90
9125;DHT22;4597;48.730;9.114;2023-04-16T01:53:34;8.10;99.90
9125;DHT22;4597;48.730;9.114;2023-04-16T01:56:00;8.10;99.90
9125;DHT22;4597;48.730;9.114;2023-04-16T01:58:27;8.20;99.90
9125;DHT22;4597;48.730;9.114;2023-04-16T02:00:54;8.10;99.90
9125;DHT22;4597;48.730;9.114;2023-04-16T02:03:20;8.00;99.90
9125;DHT22;4597;48.730;9.114;2023-04-16T02:05:48;8.10;99.90
9125;DHT22;4597;48.730;9.114;2023-04-16T02:08:13;8.00;99.90
9125;DHT22;4597;48.730;9.114;2023-04-16T02:10:39;8.10;99.90
9125;DHT22;4597;48.730;9.114;2023-04-16T02:13:04;8.00;99.90
9125;DHT22;4597;48.730;9.114;2023-04-16T02:15:30;8.00;99.90
9125;DHT22;4597;48.730;9.114;2023-04-16T02:17:55;8.00;99.90
9125;DHT22;4597;48.730;9.114;2023-04-16T02:20:21;8.00;99.90
9125;DHT22;4597;48.730;9.114;2023-04-16T02:22:47;8.00;99.90
9125;DHT22;4597;48.730;9.114;2023-04-16T02:25:12;7.90;99.90
9125;DHT22;4597;48.730;9.114;2023-04-16T02:27:40;7.90;99.90
9125;DHT22;4597;48.730;9.114;2023-04-16T02:30:06;8.00;99.90
9125;DHT22;4597;48.730;9.114;2023-04-16T02:32:32;8.00;99.90
9125;DHT22;4597;48.730;9.114;2023-04-16T02:34:57;8.10;99.90
9125;DHT22;4597;48.730;9.114;2023-04-16T02:37:23;8.00;99.90
9125;DHT22;4597;48.730;9.114;2023-04-16T02:39:50;8.10;99.90
9125;DHT22;4597;48.730;9.114;2023-04-16T02:42:15;8.00;99.90
9125;DHT22;4597;48.730;9.114;2023-04-16T02:44:41;8.00;99.90
9125;DHT22;4597;48.730;9.114;2023-04-16T02:47:07;8.00;99.90
9125;DHT22;4597;48.730;9.114;2023-04-16T02:49:32;7.90;99.90
9125;DHT22;4597;48.730;9.114;2023-04-16T02:51:58;7.90;99.90
9125;DHT22;4597;48.730;9.114;2023-04-16T02:54:23;7.90;99.90
9125;DHT22;4597;48.730;9.114;2023-04-16T02:56:49;7.90;99.90
9125;DHT22;4597;48.730;9.114;2023-04-16T02:59:14;7.90;99.90
9125;DHT22;4597;48.730;9.114;2023-04-16T03:01:40;7.90;99.90
9125;DHT22;4597;48.730;9.114;2023-04-16T03:04:05;7.90;99.90
9125;DHT22;4597;48.730;9.114;2023-04-16T03:06:31;7.90;99.90
9125;DHT22;4597;48.730;9.114;2023-04-16T03:08:56;7.90;99.90
9125;DHT22;4597;48.730;9.114;2023-04-16T03:11:22;8.00;99.90
9125;DHT22;4597;48.730;9.114;2023-04-16T03:13:48;7.90;99.90
9125;DHT22;4597;48.730;9.114;2023-04-16T03:16:13;8.00;99.90
9125;DHT22;4597;48.730;9.114;2023-04-16T03:18:39;8.00;99.90
9125;DHT22;4597;48.730;9.114;2023-04-16T03:21:05;8.00;99.90
9125;DHT22;4597;48.730;9.114;2023-04-16T03:23:30;7.90;99.90
9125;DHT22;4597;48.730;9.114;2023-04-16T03:25:56;7.90;99.90
9125;DHT22;4597;48.730;9.114;2023-04-16T03:28:22;7.90;99.90
9125;DHT22;4597;48.730;9.114;2023-04-16T03:30:53;7.90;99.90
9125;DHT22;4597;48.730;9.114;2023-04-16T03:33:19;7.90;99.90
9125;DHT22;4597;48.730;9.114;2023-04-16T03:35:45;7.90;99.90
9125;DHT22;4597;48.730;9.114;2023-04-16T03:38:10;7.90;99.90
9125;DHT22;4597;48.730;9.114;2023-04-16T03:40:36;7.90;99.90
9125;DHT22;4597;48.730;9.114;2023-04-16T03:43:03;8.00;99.90
9125;DHT22;4597;48.730;9.114;2023-04-16T03:45:28;7.80;99.90
9125;DHT22;4597;48.730;9.114;2023-04-16T03:47:53;7.80;99.90
9125;DHT22;4597;48.730;9.114;2023-04-16T03:50:19;7.90;99.90
9125;DHT22;4597;48.730;9.114;2023-04-16T03:52:45;7.90;99.90
9125;DHT22;4597;48.730;9.114;2023-04-16T03:55:11;7.90;99.90
9125;DHT22;4597;48.730;9.114;2023-04-16T03:57:38;7.90;99.90
9125;DHT22;4597;48.730;9.114;2023-04-16T04:00:04;8.00;99.90
9125;DHT22;4597;48.730;9.114;2023-04-16T04:02:29;7.90;99.90
9125;DHT22;4597;48.730;9.114;2023-04-16T04:04:55;7.90;99.90
9125;DHT22;4597;48.730;9.114;2023-04-16T04:07:20;7.90;99.90
9125;DHT22;4597;48.730;9.114;2023-04-16T04:09:46;7.90;99.90
9125;DHT22;4597;48.730;9.114;2023-04-16T04:12:11;7.90;99.90
9125;DHT22;4597;48.730;9.114;2023-04-16T04:14:37;7.90;99.90
9125;DHT22;4597;48.730;9.114;2023-04-16T04:17:07;7.90;99.90
9125;DHT22;4597;48.730;9.114;2023-04-16T04:19:33;7.90;99.90
9125;DHT22;4597;48.730;9.114;2023-04-16T04:21:59;7.90;99.90
9125;DHT22;4597;48.730;9.114;2023-04-16T04:24:24;7.90;99.90
9125;DHT22;4597;48.730;9.114;2023-04-16T04:26:51;7.90;99.90
9125;DHT22;4597;48.730;9.114;2023-04-16T04:29:16;7.90;99.90
9125;DHT22;4597;48.730;9.114;2023-04-16T04:31:42;8.00;99.90
9125;DHT22;4597;48.730;9.114;2023-04-16T04:34:07;7.90;99.90
9125;DHT22;4597;48.730;9.114;2023-04-16T04:36:33;7.90;99.90
9125;DHT22;4597;48.730;9.114;2023-04-16T04:38:58;7.90;99.90
9125;DHT22;4597;48.730;9.114;2023-04-16T04:41:24;7.90;99.90
9125;DHT22;4597;48.730;9.114;2023-04-16T04:43:51;7.90;99.90
9125;DHT22;4597;48.730;9.114;2023-04-16T04:46:16;7.90;99.90
9125;DHT22;4597;48.730;9.114;2023-04-16T04:48:42;7.80;99.90
9125;DHT22;4597;48.730;9.114;2023-04-16T04:51:07;7.80;99.90
9125;DHT22;4597;48.730;9.114;2023-04-16T04:53:33;7.80;99.90
9125;DHT22;4597;48.730;9.114;2023-04-16T04:55:58;7.90;99.90
9125;DHT22;4597;48.730;9.114;2023-04-16T04:58:24;7.80;99.90
9125;DHT22;4597;48.730;9.114;2023-04-16T05:00:49;7.90;99.90
9125;DHT22;4597;48.730;9.114;2023-04-16T05:03:19;7.80;99.90
9125;DHT22;4597;48.730;9.114;2023-04-16T05:05:45;7.70;99.90
9125;DHT22;4597;48.730;9.114;2023-04-16T05:08:11;7.80;99.90
9125;DHT22;4597;48.730;9.114;2023-04-16T05:10:37;7.70;99.90
9125;DHT22;4597;48.730;9.114;2023-04-16T05:13:02;7.80;99.90
9125;DHT22;4597;48.730;9.114;2023-04-16T05:15:28;7.90;99.90
9125;DHT22;4597;48.730;9.114;2023-04-16T05:17:54;7.80;99.90
9125;DHT22;4597;48.730;9.114;2023-04-16T05:20:21;7.90;99.90
9125;DHT22;4597;48.730;9.114;2023-04-16T05:22:48;7.90;99.90
9125;DHT22;4597;48.730;9.114;2023-04-16T05:25:14;7.90;99.90
9125;DHT22;4597;48.730;9.114;2023-04-16T05:27:39;7.90;99.90
9125;DHT22;4597;48.730;9.114;2023-04-16T05:30:06;7.90;99.90
9125;DHT22;4597;48.730;9.114;2023-04-16T05:32:31;7.80;99.90
9125;DHT22;4597;48.730;9.114;2023-04-16T05:34:57;7.70;99.90
9125;DHT22;4597;48.730;9.114;2023-04-16T05:37:22;7.80;99.90
9125;DHT22;4597;48.730;9.114;2023-04-16T05:39:48;7.90;99.90
9125;DHT22;4597;48.730;9.114;2023-04-16T05:42:13;7.90;99.90
9125;DHT22;4597;48.730;9.114;2023-04-16T05:44:39;7.90;99.90
9125;DHT22;4597;48.730;9.114;2023-04-16T05:47:05;7.90;99.90
9125;DHT22;4597;48.730;9.114;2023-04-16T05:49:32;7.80;99.90
9125;DHT22;4597;48.730;9.114;2023-04-16T05:51:57;7.90;99.90
9125;DHT22;4597;48.730;9.114;2023-04-16T05:54:23;7.90;99.90
9125;DHT22;4597;48.730;9.114;2023-04-16T05:56:48;7.90;99.90
9125;DHT22;4597;48.730;9.114;2023-04-16T05:59:14;7.80;99.90
9125;DHT22;4597;48.730;9.114;2023-04-16T06:01:40;7.90;99.90
9125;DHT22;4597;48.730;9.114;2023-04-16T06:04:05;7.90;99.90
9125;DHT22;4597;48.730;9.114;2023-04-16T06:06:31;7.90;99.90
9125;DHT22;4597;48.730;9.114;2023-04-16T06:08:56;7.80;99.90
9125;DHT22;4597;48.730;9.114;2023-04-16T06:11:22;7.80;99.90
9125;DHT22;4597;48.730;9.114;2023-04-16T06:13:47;7.80;99.90
9125;DHT22;4597;48.730;9.114;2023-04-16T06:16:13;7.70;99.90
9125;DHT22;4597;48.730;9.114;2023-04-16T06:18:38;7.80;99.90
9125;DHT22;4597;48.730;9.114;2023-04-16T06:21:04;7.80;99.90
9125;DHT22;4597;48.730;9.114;2023-04-16T06:23:30;7.80;99.90
9125;DHT22;4597;48.730;9.114;2023-04-16T06:25:55;7.80;99.90
9125;DHT22;4597;48.730;9.114;2023-04-16T06:28:21;7.80;99.90
9125;DHT22;4597;48.730;9.114;2023-04-16T06:30:46;7.80;99.90
9125;DHT22;4597;48.730;9.114;2023-04-16T06:33:12;7.80;99.90
9125;DHT22;4597;48.730;9.114;2023-04-16T06:35:37;7.90;99.90
9125;DHT22;4597;48.730;9.114;2023-04-16T06:38:03;7.90;99.90
9125;DHT22;4597;48.730;9.114;2023-04-16T06:40:28;7.90;99.90
9125;DHT22;4597;48.730;9.114;2023-04-16T06:42:54;7.90;99.90
9125;DHT22;4597;48.730;9.114;2023-04-16T06:45:20;7.90;99.90
9125;DHT22;4597;48.730;9.114;2023-04-16T06:47:45;8.00;99.90
9125;DHT22;4597;48.730;9.114;2023-04-16T06:50:12;8.00;99.90
9125;DHT22;4597;48.730;9.114;2023-04-16T06:52:38;8.00;99.90
9125;DHT22;4597;48.730;9.114;2023-04-16T06:55:03;7.90;99.90
9125;DHT22;4597;48.730;9.114;2023-04-16T06:57:29;7.90;99.90
9125;DHT22;4597;48.730;9.114;2023-04-16T06:59:55;8.00;99.90
9125;DHT22;4597;48.730;9.114;2023-04-16T07:02:20;8.00;99.90
9125;DHT22;4597;48.730;9.114;2023-04-16T07:04:46;8.00;99.90
9125;DHT22;4597;48.730;9.114;2023-04-16T07:07:11;8.00;99.90
9125;DHT22;4597;48.730;9.114;2023-04-16T07:09:37;8.00;99.90
9125;DHT22;4597;48.730;9.114;2023-04-16T07:12:02;8.00;99.90
9125;DHT22;4597;48.730;9.114;2023-04-16T07:14:28;8.00;99.90
9125;DHT22;4597;48.730;9.114;2023-04-16T07:16:53;8.00;99.90
9125;DHT22;4597;48.730;9.114;2023-04-16T07:19:19;8.10;99.90
9125;DHT22;4597;48.730;9.114;2023-04-16T07:21:44;8.10;99.90
9125;DHT22;4597;48.730;9.114;2023-04-16T07:24:10;8.10;99.90
9125;DHT22;4597;48.730;9.114;2023-04-16T07:26:36;8.10;99.90
9125;DHT22;4597;48.730;9.114;2023-04-16T07:29:01;8.10;99.90
9125;DHT22;4597;48.730;9.114;2023-04-16T07:31:27;8.20;99.90
9125;DHT22;4597;48.730;9.114;2023-04-16T07:33:53;8.20;99.90
9125;DHT22;4597;48.730;9.114;2023-04-16T07:36:19;8.30;99.90
9125;DHT22;4597;48.730;9.114;2023-04-16T07:38:45;8.30;99.90
9125;DHT22;4597;48.730;9.114;2023-04-16T07:41:11;8.40;99.90
9125;DHT22;4597;48.730;9.114;2023-04-16T07:43:36;8.40;99.90
9125;DHT22;4597;48.730;9.114;2023-04-16T07:46:02;8.40;99.90
9125;DHT22;4597;48.730;9.114;2023-04-16T07:48:28;8.40;99.90
9125;DHT22;4597;48.730;9.114;2023-04-16T07:50:53;8.50;99.90
9125;DHT22;4597;48.730;9.114;2023-04-16T07:53:19;8.50;99.90
9125;DHT22;4597;48.730;9.114;2023-04-16T07:55:44;8.50;99.90
9125;DHT22;4597;48.730;9.114;2023-04-16T07:58:10;8.50;99.90
9125;DHT22;4597;48.730;9.114;2023-04-16T08:00:36;8.50;99.90
9125;DHT22;4597;48.730;9.114;2023-04-16T08:03:01;8.40;99.90
9125;DHT22;4597;48.730;9.114;2023-04-16T08:05:27;8.50;99.90
9125;DHT22;4597;48.730;9.114;2023-04-16T08:07:53;8.50;99.90
9125;DHT22;4597;48.730;9.114;2023-04-16T08:10:18;8.60;99.90
9125;DHT22;4597;48.730;9.114;2023-04-16T08:12:44;8.60;99.90
9125;DHT22;4597;48.730;9.114;2023-04-16T08:15:10;8.70;99.90
9125;DHT22;4597;48.730;9.114;2023-04-16T08:17:35;8.70;99.90
9125;DHT22;4597;48.730;9.114;2023-04-16T08:20:02;8.80;99.90
9125;DHT22;4597;48.730;9.114;2023-04-16T08:22:27;8.70;99.90
9125;DHT22;4597;48.730;9.114;2023-04-16T08:24:53;8.70;99.90
9125;DHT22;4597;48.730;9.114;2023-04-16T08:27:19;8.60;99.90
9125;DHT22;4597;48.730;9.114;2023-04-16T08:29:44;8.70;99.90
9125;DHT22;4597;48.730;9.114;2023-04-16T08:32:10;8.70;99.90
9125;DHT22;4597;48.730;9.114;2023-04-16T08:34:36;8.70;99.90
9125;DHT22;4597;48.730;9.114;2023-04-16T08:37:02;8.70;99.90
9125;DHT22;4597;48.730;9.114;2023-04-16T08:39:27;8.70;99.90
9125;DHT22;4597;48.730;9.114;2023-04-16T08:41:53;8.70;99.90
9125;DHT22;4597;48.730;9.114;2023-04-16T08:44:25;8.70;99.90
9125;DHT22;4597;48.730;9.114;2023-04-16T08:46:52;8.70;99.90
9125;DHT22;4597;48.730;9.114;2023-04-16T08:49:26;8.70;99.90
9125;DHT22;4597;48.730;9.114;2023-04-16T08:51:53;8.80;99.90
9125;DHT22;4597;48.730;9.114;2023-04-16T08:57:05;8.90;99.90
9125;DHT22;4597;48.730;9.114;2023-04-16T08:59:31;8.90;99.90
9125;DHT22;4597;48.730;9.114;2023-04-16T09:01:57;8.90;99.90
9125;DHT22;4597;48.730;9.114;2023-04-16T09:04:27;9.00;99.90
9125;DHT22;4597;48.730;9.114;2023-04-16T09:06:54;9.00;99.90
9125;DHT22;4597;48.730;9.114;2023-04-16T09:09:20;9.00;99.90
9125;DHT22;4597;48.730;9.114;2023-04-16T09:11:50;9.00;99.90
9125;DHT22;4597;48.730;9.114;2023-04-16T09:14:16;9.00;99.90
9125;DHT22;4597;48.730;9.114;2023-04-16T09:16:44;9.00;99.90
9125;DHT22;4597;48.730;9.114;2023-04-16T09:19:11;9.10;99.90
9125;DHT22;4597;48.730;9.114;2023-04-16T09:21:37;9.10;99.90
9125;DHT22;4597;48.730;9.114;2023-04-16T09:24:03;9.10;99.90
9125;DHT22;4597;48.730;9.114;2023-04-16T09:26:29;9.10;99.90
9125;DHT22;4597;48.730;9.114;2023-04-16T09:28:55;9.10;99.90
9125;DHT22;4597;48.730;9.114;2023-04-16T09:31:20;9.20;99.90
9125;DHT22;4597;48.730;9.114;2023-04-16T09:34:06;9.10;99.90
9125;DHT22;4597;48.730;9.114;2023-04-16T09:36:33;9.10;99.90
9125;DHT22;4597;48.730;9.114;2023-04-16T09:39:00;9.10;99.90
9125;DHT22;4597;48.730;9.114;2023-04-16T09:41:28;9.10;99.90
9125;DHT22;4597;48.730;9.114;2023-04-16T09:43:56;9.10;99.90
9125;DHT22;4597;48.730;9.114;2023-04-16T09:46:28;9.10;99.90
9125;DHT22;4597;48.730;9.114;2023-04-16T09:48:54;9.10;99.90
9125;DHT22;4597;48.730;9.114;2023-04-16T09:51:20;9.10;99.90
9125;DHT22;4597;48.730;9.114;2023-04-16T09:53:45;9.10;99.90
9125;DHT22;4597;48.730;9.114;2023-04-16T09:56:11;9.10;99.90
9125;DHT22;4597;48.730;9.114;2023-04-16T09:58:37;9.10;99.90
9125;DHT22;4597;48.730;9.114;2023-04-16T10:01:10;9.00;99.90
9125;DHT22;4597;48.730;9.114;2023-04-16T10:03:37;9.10;99.90
9125;DHT22;4597;48.730;9.114;2023-04-16T10:06:15;9.00;99.90
9125;DHT22;4597;48.730;9.114;2023-04-16T10:08:47;9.10;99.90
9125;DHT22;4597;48.730;9.114;2023-04-16T10:11:14;9.10;99.90
9125;DHT22;4597;48.730;9.114;2023-04-16T10:13:40;9.20;99.90
9125;DHT22;4597;48.730;9.114;2023-04-16T10:16:06;9.20;99.90
9125;DHT22;4597;48.730;9.114;2023-04-16T10:18:40;9.20;99.90
9125;DHT22;4597;48.730;9.114;2023-04-16T10:21:07;9.20;99.90
9125;DHT22;4597;48.730;9.114;2023-04-16T10:23:33;9.00;99.90
9125;DHT22;4597;48.730;9.114;2023-04-16T10:26:00;9.00;99.90
9125;DHT22;4597;48.730;9.114;2023-04-16T10:28:25;9.00;99.90
9125;DHT22;4597;48.730;9.114;2023-04-16T10:30:54;9.10;99.90
9125;DHT22;4597;48.730;9.114;2023-04-16T10:33:22;9.10;99.90
9125;DHT22;4597;48.730;9.114;2023-04-16T10:35:52;9.10;99.90
9125;DHT22;4597;48.730;9.114;2023-04-16T10:38:23;9.10;99.90
9125;DHT22;4597;48.730;9.114;2023-04-16T10:40:49;9.10;99.90
9125;DHT22;4597;48.730;9.114;2023-04-16T10:43:17;9.20;99.90
9125;DHT22;4597;48.730;9.114;2023-04-16T10:45:44;9.10;99.90
9125;DHT22;4597;48.730;9.114;2023-04-16T10:48:11;9.10;99.90
9125;DHT22;4597;48.730;9.114;2023-04-16T10:50:39;9.20;99.90
9125;DHT22;4597;48.730;9.114;2023-04-16T10:53:20;9.00;99.90
9125;DHT22;4597;48.730;9.114;2023-04-16T10:55:57;9.10;99.90
9125;DHT22;4597;48.730;9.114;2023-04-16T10:58:29;9.10;99.90
9125;DHT22;4597;48.730;9.114;2023-04-16T11:00:57;9.10;99.90
9125;DHT22;4597;48.730;9.114;2023-04-16T11:03:23;9.20;99.90
9125;DHT22;4597;48.730;9.114;2023-04-16T11:05:49;9.20;99.90
9125;DHT22;4597;48.730;9.114;2023-04-16T11:08:15;9.30;99.90
9125;DHT22;4597;48.730;9.114;2023-04-16T11:10:40;9.20;99.90
9125;DHT22;4597;48.730;9.114;2023-04-16T11:13:06;9.20;99.90
9125;DHT22;4597;48.730;9.114;2023-04-16T11:15:33;9.20;99.90
9125;DHT22;4597;48.730;9.114;2023-04-16T11:17:59;9.20;99.90
9125;DHT22;4597;48.730;9.114;2023-04-16T11:20:26;9.20;99.90
9125;DHT22;4597;48.730;9.114;2023-04-16T11:22:56;9.20;99.90
9125;DHT22;4597;48.730;9.114;2023-04-16T11:25:29;9.20;99.90
9125;DHT22;4597;48.730;9.114;2023-04-16T11:27:55;9.20;99.90
9125;DHT22;4597;48.730;9.114;2023-04-16T11:30:34;9.20;99.90
9125;DHT22;4597;48.730;9.114;2023-04-16T11:33:04;9.20;99.90
9125;DHT22;4597;48.730;9.114;2023-04-16T11:35:29;9.20;99.90
9125;DHT22;4597;48.730;9.114;2023-04-16T11:37:56;9.20;99.90
9125;DHT22;4597;48.730;9.114;2023-04-16T11:40:22;9.20;99.90
9125;DHT22;4597;48.730;9.114;2023-04-16T11:42:47;9.20;99.90
9125;DHT22;4597;48.730;9.114;2023-04-16T11:45:13;9.10;99.90
9125;DHT22;4597;48.730;9.114;2023-04-16T11:47:49;9.10;99.90
9125;DHT22;4597;48.730;9.114;2023-04-16T11:50:26;9.10;99.90
9125;DHT22;4597;48.730;9.114;2023-04-16T11:52:54;9.00;99.90
9125;DHT22;4597;48.730;9.114;2023-04-16T11:55:21;9.00;99.90
9125;DHT22;4597;48.730;9.114;2023-04-16T11:57:47;9.00;99.90
9125;DHT22;4597;48.730;9.114;2023-04-16T12:00:13;9.00;99.90
9125;DHT22;4597;48.730;9.114;2023-04-16T12:02:43;9.00;99.90
9125;DHT22;4597;48.730;9.114;2023-04-16T12:05:34;9.00;99.90
9125;DHT22;4597;48.730;9.114;2023-04-16T12:08:02;9.00;99.90
9125;DHT22;4597;48.730;9.114;2023-04-16T12:10:29;9.00;99.90
9125;DHT22;4597;48.730;9.114;2023-04-16T12:13:12;9.10;99.90
9125;DHT22;4597;48.730;9.114;2023-04-16T12:15:45;9.10;99.90
9125;DHT22;4597;48.730;9.114;2023-04-16T12:18:11;9.00;99.90
9125;DHT22;4597;48.730;9.114;2023-04-16T12:20:40;9.00;99.90
9125;DHT22;4597;48.730;9.114;2023-04-16T12:23:09;9.10;99.90
9125;DHT22;4597;48.730;9.114;2023-04-16T12:25:35;9.10;99.90
9125;DHT22;4597;48.730;9.114;2023-04-16T12:28:01;9.00;99.90
9125;DHT22;4597;48.730;9.114;2023-04-16T12:30:27;9.00;99.90
9125;DHT22;4597;48.730;9.114;2023-04-16T12:33:16;9.10;99.90
9125;DHT22;4597;48.730;9.114;2023-04-16T12:35:42;9.10;99.90
9125;DHT22;4597;48.730;9.114;2023-04-16T12:38:09;9.10;99.90
9125;DHT22;4597;48.730;9.114;2023-04-16T12:40:35;9.10;99.90
9125;DHT22;4597;48.730;9.114;2023-04-16T12:43:01;9.10;99.90
9125;DHT22;4597;48.730;9.114;2023-04-16T12:45:26;9.10;99.90
9125;DHT22;4597;48.730;9.114;2023-04-16T12:47:52;9.10;99.90
9125;DHT22;4597;48.730;9.114;2023-04-16T12:50:17;9.10;99.90
9125;DHT22;4597;48.730;9.114;2023-04-16T12:52:43;9.10;99.90
9125;DHT22;4597;48.730;9.114;2023-04-16T12:55:09;9.10;99.90
9125;DHT22;4597;48.730;9.114;2023-04-16T12:57:34;9.10;99.90
9125;DHT22;4597;48.730;9.114;2023-04-16T13:00:00;9.20;99.90
9125;DHT22;4597;48.730;9.114;2023-04-16T13:02:26;9.20;99.90
9125;DHT22;4597;48.730;9.114;2023-04-16T13:04:52;9.20;99.90
9125;DHT22;4597;48.730;9.114;2023-04-16T13:07:18;9.20;99.90
9125;DHT22;4597;48.730;9.114;2023-04-16T13:09:44;9.30;99.90
9125;DHT22;4597;48.730;9.114;2023-04-16T13:12:10;9.30;99.90
9125;DHT22;4597;48.730;9.114;2023-04-16T13:14:36;9.40;99.90
9125;DHT22;4597;48.730;9.114;2023-04-16T13:17:02;9.30;99.90
9125;DHT22;4597;48.730;9.114;2023-04-16T13:19:28;9.40;99.90
9125;DHT22;4597;48.730;9.114;2023-04-16T13:21:54;9.40;99.90
9125;DHT22;4597;48.730;9.114;2023-04-16T13:24:20;9.40;99.90
9125;DHT22;4597;48.730;9.114;2023-04-16T13:26:45;9.50;99.90
9125;DHT22;4597;48.730;9.114;2023-04-16T13:29:11;9.40;99.90
9125;DHT22;4597;48.730;9.114;2023-04-16T13:31:37;9.40;99.90
9125;DHT22;4597;48.730;9.114;2023-04-16T13:34:02;9.30;99.90
9125;DHT22;4597;48.730;9.114;2023-04-16T13:36:29;9.30;99.90
9125;DHT22;4597;48.730;9.114;2023-04-16T13:38:56;9.40;99.90
9125;DHT22;4597;48.730;9.114;2023-04-16T13:41:22;9.40;99.90
9125;DHT22;4597;48.730;9.114;2023-04-16T13:43:48;9.30;99.90
9125;DHT22;4597;48.730;9.114;2023-04-16T13:46:13;9.40;99.90
9125;DHT22;4597;48.730;9.114;2023-04-16T13:48:39;9.40;99.90
9125;DHT22;4597;48.730;9.114;2023-04-16T13:51:05;9.50;99.90
9125;DHT22;4597;48.730;9.114;2023-04-16T13:53:30;9.40;99.90
9125;DHT22;4597;48.730;9.114;2023-04-16T13:55:56;9.30;99.90
9125;DHT22;4597;48.730;9.114;2023-04-16T13:58:21;9.30;99.90
9125;DHT22;4597;48.730;9.114;2023-04-16T14:00:47;9.30;99.90
9125;DHT22;4597;48.730;9.114;2023-04-16T14:03:12;9.30;99.90
9125;DHT22;4597;48.730;9.114;2023-04-16T14:05:38;9.40;99.90
9125;DHT22;4597;48.730;9.114;2023-04-16T14:08:03;9.40;99.90
9125;DHT22;4597;48.730;9.114;2023-04-16T14:10:30;9.40;99.90
9125;DHT22;4597;48.730;9.114;2023-04-16T14:12:56;9.40;99.90
9125;DHT22;4597;48.730;9.114;2023-04-16T14:15:21;9.50;99.90
9125;DHT22;4597;48.730;9.114;2023-04-16T14:17:47;9.40;99.90
9125;DHT22;4597;48.730;9.114;2023-04-16T14:20:13;9.40;99.90
9125;DHT22;4597;48.730;9.114;2023-04-16T14:22:38;9.30;99.90
9125;DHT22;4597;48.730;9.114;2023-04-16T14:25:06;9.30;99.90
9125;DHT22;4597;48.730;9.114;2023-04-16T14:27:32;9.30;99.90
9125;DHT22;4597;48.730;9.114;2023-04-16T14:29:58;9.40;99.90
9125;DHT22;4597;48.730;9.114;2023-04-16T14:32:25;9.40;99.90
9125;DHT22;4597;48.730;9.114;2023-04-16T14:34:50;9.30;99.90
9125;DHT22;4597;48.730;9.114;2023-04-16T14:37:17;9.30;99.90
9125;DHT22;4597;48.730;9.114;2023-04-16T14:39:42;9.30;99.90
9125;DHT22;4597;48.730;9.114;2023-04-16T14:42:08;9.30;99.90
9125;DHT22;4597;48.730;9.114;2023-04-16T14:44:34;9.30;99.90
9125;DHT22;4597;48.730;9.114;2023-04-16T14:46:59;9.40;99.90
9125;DHT22;4597;48.730;9.114;2023-04-16T14:49:25;9.40;99.90
9125;DHT22;4597;48.730;9.114;2023-04-16T14:51:51;9.30;99.90
9125;DHT22;4597;48.730;9.114;2023-04-16T14:54:19;9.30;99.90
9125;DHT22;4597;48.730;9.114;2023-04-16T14:56:45;9.30;99.90
9125;DHT22;4597;48.730;9.114;2023-04-16T14:59:12;9.30;99.90
9125;DHT22;4597;48.730;9.114;2023-04-16T15:01:37;9.30;99.90
9125;DHT22;4597;48.730;9.114;2023-04-16T15:04:06;9.30;99.90
9125;DHT22;4597;48.730;9.114;2023-04-16T15:06:33;9.40;99.90
9125;DHT22;4597;48.730;9.114;2023-04-16T15:08:59;9.30;99.90
9125;DHT22;4597;48.730;9.114;2023-04-16T15:11:25;9.30;99.90
9125;DHT22;4597;48.730;9.114;2023-04-16T15:13:51;9.40;99.90
9125;DHT22;4597;48.730;9.114;2023-04-16T15:16:16;9.40;99.90
9125;DHT22;4597;48.730;9.114;2023-04-16T15:18:42;9.30;99.90
9125;DHT22;4597;48.730;9.114;2023-04-16T15:21:07;9.40;99.90
9125;DHT22;4597;48.730;9.114;2023-04-16T15:23:33;9.30;99.90
9125;DHT22;4597;48.730;9.114;2023-04-16T15:25:58;9.40;99.90
9125;DHT22;4597;48.730;9.114;2023-04-16T15:28:24;9.30;99.90
9125;DHT22;4597;48.730;9.114;2023-04-16T15:30:50;9.30;99.90
9125;DHT22;4597;48.730;9.114;2023-04-16T15:33:16;9.30;99.90
9125;DHT22;4597;48.730;9.114;2023-04-16T15:35:41;9.30;99.90
9125;DHT22;4597;48.730;9.114;2023-04-16T15:38:07;9.40;99.90
9125;DHT22;4597;48.730;9.114;2023-04-16T15:40:33;9.30;99.90
9125;DHT22;4597;48.730;9.114;2023-04-16T15:42:58;9.30;99.90
9125;DHT22;4597;48.730;9.114;2023-04-16T15:45:24;9.30;99.90
9125;DHT22;4597;48.730;9.114;2023-04-16T15:47:50;9.30;99.90
9125;DHT22;4597;48.730;9.114;2023-04-16T15:50:17;9.30;99.90
9125;DHT22;4597;48.730;9.114;2023-04-16T15:52:42;9.30;99.90
9125;DHT22;4597;48.730;9.114;2023-04-16T15:55:08;9.40;99.90
9125;DHT22;4597;48.730;9.114;2023-04-16T15:57:34;9.40;99.90
9125;DHT22;4597;48.730;9.114;2023-04-16T16:00:00;9.30;99.90
9125;DHT22;4597;48.730;9.114;2023-04-16T16:02:25;9.30;99.90
9125;DHT22;4597;48.730;9.114;2023-04-16T16:04:51;9.30;99.90
9125;DHT22;4597;48.730;9.114;2023-04-16T16:07:16;9.30;99.90
9125;DHT22;4597;48.730;9.114;2023-04-16T16:09:44;9.30;99.90
9125;DHT22;4597;48.730;9.114;2023-04-16T16:12:11;9.40;99.90
9125;DHT22;4597;48.730;9.114;2023-04-16T16:14:37;9.40;99.90